sensor_id;sensor_type;location;lat;lon;timestamp;P1;durP1;ratioP1;P2;durP2;ratioP2
4365;SDS011;2196;47.422;9.656;2023-07-24T00:00:16;12.90;;;10.17;;
4365;SDS011;2196;47.422;9.656;2023-07-24T00:02:43;12.60;;;11.00;;
4365;SDS011;2196;47.422;9.656;2023-07-24T00:05:10;11.77;;;10.30;;
4365;SDS011;2196;47.422;9.656;2023-07-24T00:07:37;12.63;;;10.23;;
4365;SDS011;2196;47.422;9.656;2023-07-24T00:10:04;13.40;;;11.63;;
4365;SDS011;2196;47.422;9.656;2023-07-24T00:12:32;13.47;;;10.80;;
4365;SDS011;2196;47.422;9.656;2023-07-24T00:15:00;13.77;;;11.33;;
4365;SDS011;2196;47.422;9.656;2023-07-24T00:17:27;12.60;;;11.20;;
4365;SDS011;2196;47.422;9.656;2023-07-24T00:19:54;12.60;;;10.93;;
4365;SDS011;2196;47.422;9.656;2023-07-24T00:22:21;15.87;;;12.10;;
4365;SDS011;2196;47.422;9.656;2023-07-24T00:24:48;14.03;;;11.80;;
4365;SDS011;2196;47.422;9.656;2023-07-24T00:27:15;13.67;;;10.43;;
4365;SDS011;2196;47.422;9.656;2023-07-24T00:29:42;13.40;;;11.00;;
4365;SDS011;2196;47.422;9.656;2023-07-24T00:32:11;13.60;;;11.20;;
4365;SDS011;2196;47.422;9.656;2023-07-24T00:34:38;14.63;;;11.33;;
4365;SDS011;2196;47.422;9.656;2023-07-24T00:37:05;12.63;;;10.93;;
4365;SDS011;2196;47.422;9.656;2023-07-24T00:39:32;14.87;;;10.80;;
4365;SDS011;2196;47.422;9.656;2023-07-24T00:41:59;13.23;;;11.03;;
4365;SDS011;2196;47.422;9.656;2023-07-24T00:44:26;14.60;;;11.47;;
4365;SDS011;2196;47.422;9.656;2023-07-24T00:46:53;12.53;;;10.93;;
4365;SDS011;2196;47.422;9.656;2023-07-24T00:49:21;15.00;;;11.57;;
4365;SDS011;2196;47.422;9.656;2023-07-24T00:51:48;14.27;;;10.70;;
4365;SDS011;2196;47.422;9.656;2023-07-24T00:54:16;13.30;;;11.30;;
4365;SDS011;2196;47.422;9.656;2023-07-24T00:56:44;13.97;;;11.97;;
4365;SDS011;2196;47.422;9.656;2023-07-24T00:59:12;13.73;;;11.13;;
4365;SDS011;2196;47.422;9.656;2023-07-24T01:01:39;13.67;;;12.13;;
4365;SDS011;2196;47.422;9.656;2023-07-24T01:04:07;14.07;;;12.13;;
4365;SDS011;2196;47.422;9.656;2023-07-24T01:06:36;15.03;;;13.00;;
4365;SDS011;2196;47.422;9.656;2023-07-24T01:09:03;14.87;;;12.30;;
4365;SDS011;2196;47.422;9.656;2023-07-24T01:11:32;15.67;;;11.50;;
4365;SDS011;2196;47.422;9.656;2023-07-24T01:14:04;14.13;;;12.20;;
4365;SDS011;2196;47.422;9.656;2023-07-24T01:16:36;15.47;;;13.33;;
4365;SDS011;2196;47.422;9.656;2023-07-24T01:19:04;15.30;;;12.00;;
4365;SDS011;2196;47.422;9.656;2023-07-24T01:21:44;19.33;;;13.70;;
4365;SDS011;2196;47.422;9.656;2023-07-24T01:24:20;14.00;;;12.50;;
4365;SDS011;2196;47.422;9.656;2023-07-24T01:26:56;15.57;;;13.23;;
4365;SDS011;2196;47.422;9.656;2023-07-24T01:29:23;14.40;;;11.63;;
4365;SDS011;2196;47.422;9.656;2023-07-24T01:31:50;15.73;;;13.30;;
4365;SDS011;2196;47.422;9.656;2023-07-24T01:34:17;14.67;;;12.00;;
4365;SDS011;2196;47.422;9.656;2023-07-24T01:36:44;16.07;;;12.73;;
4365;SDS011;2196;47.422;9.656;2023-07-24T01:39:11;13.40;;;11.97;;
4365;SDS011;2196;47.422;9.656;2023-07-24T01:41:39;15.37;;;12.67;;
4365;SDS011;2196;47.422;9.656;2023-07-24T01:44:07;19.27;;;13.10;;
4365;SDS011;2196;47.422;9.656;2023-07-24T01:46:34;13.93;;;11.73;;
4365;SDS011;2196;47.422;9.656;2023-07-24T01:49:01;13.37;;;10.97;;
4365;SDS011;2196;47.422;9.656;2023-07-24T01:51:28;12.50;;;11.03;;
4365;SDS011;2196;47.422;9.656;2023-07-24T01:53:55;12.30;;;11.03;;
4365;SDS011;2196;47.422;9.656;2023-07-24T01:56:21;14.27;;;11.33;;
4365;SDS011;2196;47.422;9.656;2023-07-24T01:58:48;14.43;;;10.63;;
4365;SDS011;2196;47.422;9.656;2023-07-24T02:01:17;11.53;;;10.33;;
4365;SDS011;2196;47.422;9.656;2023-07-24T02:03:43;14.10;;;11.43;;
4365;SDS011;2196;47.422;9.656;2023-07-24T02:06:10;12.83;;;10.70;;
4365;SDS011;2196;47.422;9.656;2023-07-24T02:08:37;12.40;;;10.07;;
4365;SDS011;2196;47.422;9.656;2023-07-24T02:11:04;12.90;;;11.17;;
4365;SDS011;2196;47.422;9.656;2023-07-24T02:13:31;12.70;;;10.13;;
4365;SDS011;2196;47.422;9.656;2023-07-24T02:15:58;12.97;;;10.83;;
4365;SDS011;2196;47.422;9.656;2023-07-24T02:18:26;12.47;;;10.50;;
4365;SDS011;2196;47.422;9.656;2023-07-24T02:20:53;14.70;;;10.27;;
4365;SDS011;2196;47.422;9.656;2023-07-24T02:23:20;11.57;;;9.17;;
4365;SDS011;2196;47.422;9.656;2023-07-24T02:25:50;14.53;;;10.07;;
4365;SDS011;2196;47.422;9.656;2023-07-24T02:28:17;13.67;;;10.30;;
4365;SDS011;2196;47.422;9.656;2023-07-24T02:30:45;12.77;;;10.50;;
4365;SDS011;2196;47.422;9.656;2023-07-24T02:33:13;14.20;;;9.70;;
4365;SDS011;2196;47.422;9.656;2023-07-24T02:35:42;12.67;;;10.33;;
4365;SDS011;2196;47.422;9.656;2023-07-24T02:38:09;10.73;;;9.13;;
4365;SDS011;2196;47.422;9.656;2023-07-24T02:40:36;12.93;;;9.73;;
4365;SDS011;2196;47.422;9.656;2023-07-24T02:43:03;13.93;;;10.63;;
4365;SDS011;2196;47.422;9.656;2023-07-24T02:45:32;14.47;;;10.50;;
4365;SDS011;2196;47.422;9.656;2023-07-24T02:48:00;10.13;;;9.03;;
4365;SDS011;2196;47.422;9.656;2023-07-24T02:50:28;13.70;;;10.27;;
4365;SDS011;2196;47.422;9.656;2023-07-24T02:52:56;14.70;;;10.10;;
4365;SDS011;2196;47.422;9.656;2023-07-24T02:55:23;13.13;;;10.33;;
4365;SDS011;2196;47.422;9.656;2023-07-24T02:57:50;13.13;;;10.50;;
4365;SDS011;2196;47.422;9.656;2023-07-24T03:00:17;10.70;;;9.30;;
4365;SDS011;2196;47.422;9.656;2023-07-24T03:02:44;13.27;;;10.10;;
4365;SDS011;2196;47.422;9.656;2023-07-24T03:05:14;12.43;;;9.53;;
4365;SDS011;2196;47.422;9.656;2023-07-24T03:07:41;12.13;;;9.80;;
4365;SDS011;2196;47.422;9.656;2023-07-24T03:10:09;12.43;;;10.27;;
4365;SDS011;2196;47.422;9.656;2023-07-24T03:12:36;12.20;;;10.20;;
4365;SDS011;2196;47.422;9.656;2023-07-24T03:15:04;11.37;;;9.40;;
4365;SDS011;2196;47.422;9.656;2023-07-24T03:17:32;12.57;;;9.57;;
4365;SDS011;2196;47.422;9.656;2023-07-24T03:20:07;10.00;;;8.87;;
4365;SDS011;2196;47.422;9.656;2023-07-24T03:22:34;10.97;;;9.40;;
4365;SDS011;2196;47.422;9.656;2023-07-24T03:25:01;10.10;;;9.00;;
4365;SDS011;2196;47.422;9.656;2023-07-24T03:27:30;11.03;;;9.60;;
4365;SDS011;2196;47.422;9.656;2023-07-24T03:29:56;10.33;;;9.23;;
4365;SDS011;2196;47.422;9.656;2023-07-24T03:32:23;11.90;;;9.87;;
4365;SDS011;2196;47.422;9.656;2023-07-24T03:34:50;11.23;;;9.80;;
4365;SDS011;2196;47.422;9.656;2023-07-24T03:37:17;11.27;;;9.00;;
4365;SDS011;2196;47.422;9.656;2023-07-24T03:39:45;12.23;;;10.37;;
4365;SDS011;2196;47.422;9.656;2023-07-24T03:42:12;12.97;;;10.27;;
4365;SDS011;2196;47.422;9.656;2023-07-24T03:44:51;12.83;;;10.57;;
4365;SDS011;2196;47.422;9.656;2023-07-24T03:47:18;10.77;;;9.33;;
4365;SDS011;2196;47.422;9.656;2023-07-24T03:49:45;9.80;;;8.80;;
4365;SDS011;2196;47.422;9.656;2023-07-24T03:52:12;19.57;;;11.47;;
4365;SDS011;2196;47.422;9.656;2023-07-24T03:54:39;14.43;;;10.80;;
4365;SDS011;2196;47.422;9.656;2023-07-24T03:57:06;13.17;;;10.40;;
4365;SDS011;2196;47.422;9.656;2023-07-24T03:59:33;13.07;;;11.03;;
4365;SDS011;2196;47.422;9.656;2023-07-24T04:02:01;13.77;;;11.00;;
4365;SDS011;2196;47.422;9.656;2023-07-24T04:04:29;14.40;;;12.60;;
4365;SDS011;2196;47.422;9.656;2023-07-24T04:06:55;13.63;;;10.00;;
4365;SDS011;2196;47.422;9.656;2023-07-24T04:09:22;10.70;;;9.30;;
4365;SDS011;2196;47.422;9.656;2023-07-24T04:11:49;12.60;;;10.23;;
4365;SDS011;2196;47.422;9.656;2023-07-24T04:14:16;15.93;;;11.30;;
4365;SDS011;2196;47.422;9.656;2023-07-24T04:16:43;13.77;;;11.10;;
4365;SDS011;2196;47.422;9.656;2023-07-24T04:19:12;12.03;;;10.33;;
4365;SDS011;2196;47.422;9.656;2023-07-24T04:21:39;13.23;;;10.63;;
4365;SDS011;2196;47.422;9.656;2023-07-24T04:24:06;12.90;;;11.53;;
4365;SDS011;2196;47.422;9.656;2023-07-24T04:26:33;14.87;;;11.70;;
4365;SDS011;2196;47.422;9.656;2023-07-24T04:29:00;12.30;;;11.00;;
4365;SDS011;2196;47.422;9.656;2023-07-24T04:31:26;12.80;;;10.33;;
4365;SDS011;2196;47.422;9.656;2023-07-24T04:33:53;12.97;;;10.37;;
4365;SDS011;2196;47.422;9.656;2023-07-24T04:36:22;11.90;;;10.50;;
4365;SDS011;2196;47.422;9.656;2023-07-24T04:38:49;12.53;;;10.53;;
4365;SDS011;2196;47.422;9.656;2023-07-24T04:41:16;10.90;;;9.80;;
4365;SDS011;2196;47.422;9.656;2023-07-24T04:43:42;13.43;;;10.80;;
4365;SDS011;2196;47.422;9.656;2023-07-24T04:46:09;15.97;;;12.00;;
4365;SDS011;2196;47.422;9.656;2023-07-24T04:48:36;14.87;;;11.03;;
4365;SDS011;2196;47.422;9.656;2023-07-24T04:51:03;11.60;;;10.40;;
4365;SDS011;2196;47.422;9.656;2023-07-24T04:53:32;13.17;;;11.77;;
4365;SDS011;2196;47.422;9.656;2023-07-24T04:55:59;15.27;;;11.47;;
4365;SDS011;2196;47.422;9.656;2023-07-24T04:58:25;12.77;;;10.33;;
4365;SDS011;2196;47.422;9.656;2023-07-24T05:00:52;13.93;;;10.57;;
4365;SDS011;2196;47.422;9.656;2023-07-24T05:03:19;15.10;;;11.67;;
4365;SDS011;2196;47.422;9.656;2023-07-24T05:05:47;12.53;;;11.20;;
4365;SDS011;2196;47.422;9.656;2023-07-24T05:08:15;12.80;;;10.60;;
4365;SDS011;2196;47.422;9.656;2023-07-24T05:10:44;13.70;;;11.80;;
4365;SDS011;2196;47.422;9.656;2023-07-24T05:13:11;11.33;;;10.13;;
4365;SDS011;2196;47.422;9.656;2023-07-24T05:15:37;13.80;;;11.33;;
4365;SDS011;2196;47.422;9.656;2023-07-24T05:18:04;14.17;;;11.93;;
4365;SDS011;2196;47.422;9.656;2023-07-24T05:20:31;14.80;;;10.40;;
4365;SDS011;2196;47.422;9.656;2023-07-24T05:22:58;15.63;;;10.87;;
4365;SDS011;2196;47.422;9.656;2023-07-24T05:25:25;13.40;;;10.27;;
4365;SDS011;2196;47.422;9.656;2023-07-24T05:27:53;11.93;;;10.60;;
4365;SDS011;2196;47.422;9.656;2023-07-24T05:30:20;13.97;;;11.17;;
4365;SDS011;2196;47.422;9.656;2023-07-24T05:32:47;15.07;;;12.07;;
4365;SDS011;2196;47.422;9.656;2023-07-24T05:35:14;14.73;;;12.97;;
4365;SDS011;2196;47.422;9.656;2023-07-24T05:37:41;15.83;;;12.13;;
4365;SDS011;2196;47.422;9.656;2023-07-24T05:40:11;17.10;;;13.13;;
4365;SDS011;2196;47.422;9.656;2023-07-24T05:42:38;14.20;;;12.37;;
4365;SDS011;2196;47.422;9.656;2023-07-24T05:45:10;10.63;;;7.77;;
4365;SDS011;2196;47.422;9.656;2023-07-24T05:47:37;9.07;;;6.33;;
4365;SDS011;2196;47.422;9.656;2023-07-24T05:50:04;10.93;;;4.50;;
4365;SDS011;2196;47.422;9.656;2023-07-24T05:52:32;7.23;;;3.73;;
4365;SDS011;2196;47.422;9.656;2023-07-24T05:54:59;6.73;;;3.83;;
4365;SDS011;2196;47.422;9.656;2023-07-24T05:57:26;5.37;;;2.77;;
4365;SDS011;2196;47.422;9.656;2023-07-24T05:59:53;3.43;;;2.50;;
4365;SDS011;2196;47.422;9.656;2023-07-24T06:02:22;2.57;;;2.33;;
4365;SDS011;2196;47.422;9.656;2023-07-24T06:04:49;2.17;;;2.07;;
4365;SDS011;2196;47.422;9.656;2023-07-24T06:07:16;1.83;;;1.73;;
4365;SDS011;2196;47.422;9.656;2023-07-24T06:09:43;2.17;;;2.07;;
4365;SDS011;2196;47.422;9.656;2023-07-24T06:12:10;3.83;;;3.23;;
4365;SDS011;2196;47.422;9.656;2023-07-24T06:14:37;2.83;;;2.37;;
4365;SDS011;2196;47.422;9.656;2023-07-24T06:17:04;3.70;;;3.30;;
4365;SDS011;2196;47.422;9.656;2023-07-24T06:19:33;2.83;;;2.63;;
4365;SDS011;2196;47.422;9.656;2023-07-24T06:22:00;4.43;;;2.70;;
4365;SDS011;2196;47.422;9.656;2023-07-24T06:24:27;3.00;;;2.70;;
4365;SDS011;2196;47.422;9.656;2023-07-24T06:26:54;2.90;;;2.70;;
4365;SDS011;2196;47.422;9.656;2023-07-24T06:29:21;4.47;;;4.03;;
4365;SDS011;2196;47.422;9.656;2023-07-24T06:31:48;5.57;;;4.87;;
4365;SDS011;2196;47.422;9.656;2023-07-24T06:34:15;5.53;;;5.00;;
4365;SDS011;2196;47.422;9.656;2023-07-24T06:36:44;5.40;;;5.00;;
4365;SDS011;2196;47.422;9.656;2023-07-24T06:39:11;5.87;;;5.27;;
4365;SDS011;2196;47.422;9.656;2023-07-24T06:41:38;7.27;;;6.57;;
4365;SDS011;2196;47.422;9.656;2023-07-24T06:44:05;6.90;;;6.27;;
4365;SDS011;2196;47.422;9.656;2023-07-24T06:46:32;6.83;;;6.13;;
4365;SDS011;2196;47.422;9.656;2023-07-24T06:48:59;8.07;;;6.73;;
4365;SDS011;2196;47.422;9.656;2023-07-24T06:51:26;7.20;;;6.23;;
4365;SDS011;2196;47.422;9.656;2023-07-24T06:53:54;7.50;;;6.10;;
4365;SDS011;2196;47.422;9.656;2023-07-24T06:56:21;7.53;;;6.20;;
4365;SDS011;2196;47.422;9.656;2023-07-24T06:58:48;5.77;;;5.27;;
4365;SDS011;2196;47.422;9.656;2023-07-24T07:01:15;6.90;;;5.63;;
4365;SDS011;2196;47.422;9.656;2023-07-24T07:03:42;6.87;;;5.10;;
4365;SDS011;2196;47.422;9.656;2023-07-24T07:06:09;5.90;;;5.33;;
4365;SDS011;2196;47.422;9.656;2023-07-24T07:08:37;5.93;;;4.67;;
4365;SDS011;2196;47.422;9.656;2023-07-24T07:11:06;4.50;;;3.73;;
4365;SDS011;2196;47.422;9.656;2023-07-24T07:13:33;5.37;;;4.40;;
4365;SDS011;2196;47.422;9.656;2023-07-24T07:16:00;4.67;;;4.27;;
4365;SDS011;2196;47.422;9.656;2023-07-24T07:18:26;4.67;;;4.23;;
4365;SDS011;2196;47.422;9.656;2023-07-24T07:20:53;5.40;;;4.90;;
4365;SDS011;2196;47.422;9.656;2023-07-24T07:23:20;5.43;;;4.93;;
4365;SDS011;2196;47.422;9.656;2023-07-24T07:25:47;5.23;;;4.77;;
4365;SDS011;2196;47.422;9.656;2023-07-24T07:28:16;5.73;;;5.23;;
4365;SDS011;2196;47.422;9.656;2023-07-24T07:30:44;5.40;;;4.70;;
4365;SDS011;2196;47.422;9.656;2023-07-24T07:33:11;7.03;;;5.00;;
4365;SDS011;2196;47.422;9.656;2023-07-24T07:35:38;6.67;;;5.17;;
4365;SDS011;2196;47.422;9.656;2023-07-24T07:38:05;7.47;;;5.80;;
4365;SDS011;2196;47.422;9.656;2023-07-24T07:40:32;5.53;;;5.00;;
4365;SDS011;2196;47.422;9.656;2023-07-24T07:42:59;5.50;;;5.10;;
4365;SDS011;2196;47.422;9.656;2023-07-24T07:45:27;5.13;;;4.73;;
4365;SDS011;2196;47.422;9.656;2023-07-24T07:47:54;7.17;;;5.53;;
4365;SDS011;2196;47.422;9.656;2023-07-24T07:50:21;6.60;;;5.17;;
4365;SDS011;2196;47.422;9.656;2023-07-24T07:52:49;11.10;;;6.13;;
4365;SDS011;2196;47.422;9.656;2023-07-24T07:55:16;6.43;;;5.80;;
4365;SDS011;2196;47.422;9.656;2023-07-24T07:57:47;6.27;;;5.70;;
4365;SDS011;2196;47.422;9.656;2023-07-24T08:00:14;6.80;;;5.67;;
4365;SDS011;2196;47.422;9.656;2023-07-24T08:02:42;5.70;;;5.20;;
4365;SDS011;2196;47.422;9.656;2023-07-24T08:05:10;6.73;;;5.47;;
4365;SDS011;2196;47.422;9.656;2023-07-24T08:07:37;6.00;;;5.50;;
4365;SDS011;2196;47.422;9.656;2023-07-24T08:10:04;7.63;;;5.07;;
4365;SDS011;2196;47.422;9.656;2023-07-24T08:12:32;6.43;;;5.80;;
4365;SDS011;2196;47.422;9.656;2023-07-24T08:14:59;5.77;;;5.23;;
4365;SDS011;2196;47.422;9.656;2023-07-24T08:17:26;5.27;;;4.87;;
4365;SDS011;2196;47.422;9.656;2023-07-24T08:19:55;6.63;;;6.03;;
4365;SDS011;2196;47.422;9.656;2023-07-24T08:22:21;5.23;;;4.73;;
4365;SDS011;2196;47.422;9.656;2023-07-24T08:24:49;6.37;;;5.77;;
4365;SDS011;2196;47.422;9.656;2023-07-24T08:27:16;6.13;;;5.53;;
4365;SDS011;2196;47.422;9.656;2023-07-24T08:29:43;7.63;;;6.93;;
4365;SDS011;2196;47.422;9.656;2023-07-24T08:32:10;7.67;;;6.97;;
4365;SDS011;2196;47.422;9.656;2023-07-24T08:34:38;6.77;;;6.27;;
4365;SDS011;2196;47.422;9.656;2023-07-24T08:37:06;7.50;;;6.53;;
4365;SDS011;2196;47.422;9.656;2023-07-24T08:39:33;7.37;;;5.97;;
4365;SDS011;2196;47.422;9.656;2023-07-24T08:42:07;9.70;;;8.80;;
4365;SDS011;2196;47.422;9.656;2023-07-24T08:44:35;7.87;;;7.17;;
4365;SDS011;2196;47.422;9.656;2023-07-24T08:47:03;7.50;;;6.80;;
4365;SDS011;2196;47.422;9.656;2023-07-24T08:49:31;8.07;;;6.53;;
4365;SDS011;2196;47.422;9.656;2023-07-24T08:51:59;6.23;;;5.73;;
4365;SDS011;2196;47.422;9.656;2023-07-24T08:54:30;6.50;;;5.90;;
4365;SDS011;2196;47.422;9.656;2023-07-24T08:56:59;6.47;;;5.97;;
4365;SDS011;2196;47.422;9.656;2023-07-24T08:59:26;7.30;;;6.70;;
4365;SDS011;2196;47.422;9.656;2023-07-24T09:01:53;9.47;;;8.17;;
4365;SDS011;2196;47.422;9.656;2023-07-24T09:04:21;8.33;;;7.23;;
4365;SDS011;2196;47.422;9.656;2023-07-24T09:06:48;7.57;;;6.87;;
4365;SDS011;2196;47.422;9.656;2023-07-24T09:09:16;7.90;;;7.17;;
4365;SDS011;2196;47.422;9.656;2023-07-24T09:11:48;8.50;;;7.80;;
4365;SDS011;2196;47.422;9.656;2023-07-24T09:14:23;8.47;;;7.63;;
4365;SDS011;2196;47.422;9.656;2023-07-24T09:17:01;9.07;;;7.67;;
4365;SDS011;2196;47.422;9.656;2023-07-24T09:19:28;8.87;;;7.77;;
4365;SDS011;2196;47.422;9.656;2023-07-24T09:21:55;8.17;;;7.33;;
4365;SDS011;2196;47.422;9.656;2023-07-24T09:24:33;8.25;;;7.25;;
4365;SDS011;2196;47.422;9.656;2023-07-24T09:27:04;15.02;;;10.90;;
4365;SDS011;2196;47.422;9.656;2023-07-24T09:29:32;15.13;;;13.48;;
4365;SDS011;2196;47.422;9.656;2023-07-24T09:31:59;16.08;;;14.05;;
4365;SDS011;2196;47.422;9.656;2023-07-24T09:34:26;20.10;;;13.43;;
4365;SDS011;2196;47.422;9.656;2023-07-24T09:36:53;22.80;;;16.52;;
4365;SDS011;2196;47.422;9.656;2023-07-24T09:39:23;20.40;;;17.05;;
4365;SDS011;2196;47.422;9.656;2023-07-24T09:41:51;19.50;;;16.30;;
4365;SDS011;2196;47.422;9.656;2023-07-24T09:44:20;23.55;;;19.20;;
4365;SDS011;2196;47.422;9.656;2023-07-24T09:46:47;28.83;;;20.25;;
4365;SDS011;2196;47.422;9.656;2023-07-24T09:49:14;26.27;;;19.15;;
4365;SDS011;2196;47.422;9.656;2023-07-24T09:51:42;23.65;;;19.23;;
4365;SDS011;2196;47.422;9.656;2023-07-24T09:54:15;26.60;;;20.67;;
4365;SDS011;2196;47.422;9.656;2023-07-24T09:56:48;22.95;;;18.10;;
4365;SDS011;2196;47.422;9.656;2023-07-24T09:59:18;22.05;;;18.77;;
4365;SDS011;2196;47.422;9.656;2023-07-24T10:01:47;24.15;;;17.30;;
4365;SDS011;2196;47.422;9.656;2023-07-24T10:04:15;23.02;;;18.23;;
4365;SDS011;2196;47.422;9.656;2023-07-24T10:06:42;14.35;;;12.35;;
4365;SDS011;2196;47.422;9.656;2023-07-24T10:09:10;12.35;;;10.05;;
4365;SDS011;2196;47.422;9.656;2023-07-24T10:11:38;10.80;;;9.27;;
4365;SDS011;2196;47.422;9.656;2023-07-24T10:14:05;8.45;;;7.75;;
4365;SDS011;2196;47.422;9.656;2023-07-24T10:16:32;9.75;;;8.75;;
4365;SDS011;2196;47.422;9.656;2023-07-24T10:19:01;6.93;;;6.43;;
4365;SDS011;2196;47.422;9.656;2023-07-24T10:21:38;6.97;;;6.38;;
4365;SDS011;2196;47.422;9.656;2023-07-24T10:24:11;6.13;;;5.45;;
4365;SDS011;2196;47.422;9.656;2023-07-24T10:26:38;6.30;;;5.73;;
4365;SDS011;2196;47.422;9.656;2023-07-24T10:29:05;5.50;;;5.00;;
4365;SDS011;2196;47.422;9.656;2023-07-24T10:31:32;5.93;;;5.53;;
4365;SDS011;2196;47.422;9.656;2023-07-24T10:34:04;5.20;;;4.80;;
4365;SDS011;2196;47.422;9.656;2023-07-24T10:36:33;5.87;;;5.33;;
4365;SDS011;2196;47.422;9.656;2023-07-24T10:39:01;5.30;;;4.90;;
4365;SDS011;2196;47.422;9.656;2023-07-24T10:41:34;5.70;;;4.97;;
4365;SDS011;2196;47.422;9.656;2023-07-24T10:44:01;5.57;;;5.07;;
4365;SDS011;2196;47.422;9.656;2023-07-24T10:46:35;5.07;;;4.70;;
4365;SDS011;2196;47.422;9.656;2023-07-24T10:49:04;5.90;;;5.30;;
4365;SDS011;2196;47.422;9.656;2023-07-24T10:51:32;7.03;;;5.67;;
4365;SDS011;2196;47.422;9.656;2023-07-24T10:54:02;6.77;;;6.17;;
4365;SDS011;2196;47.422;9.656;2023-07-24T10:56:30;6.63;;;6.00;;
4365;SDS011;2196;47.422;9.656;2023-07-24T10:59:01;6.50;;;5.90;;
4365;SDS011;2196;47.422;9.656;2023-07-24T11:01:30;6.33;;;5.73;;
4365;SDS011;2196;47.422;9.656;2023-07-24T11:03:57;5.83;;;5.13;;
4365;SDS011;2196;47.422;9.656;2023-07-24T11:06:27;6.93;;;5.37;;
4365;SDS011;2196;47.422;9.656;2023-07-24T11:08:54;6.47;;;5.30;;
4365;SDS011;2196;47.422;9.656;2023-07-24T11:11:27;6.90;;;6.13;;
4365;SDS011;2196;47.422;9.656;2023-07-24T11:13:54;7.33;;;5.43;;
4365;SDS011;2196;47.422;9.656;2023-07-24T11:16:21;7.53;;;5.20;;
4365;SDS011;2196;47.422;9.656;2023-07-24T11:18:49;5.70;;;5.20;;
4365;SDS011;2196;47.422;9.656;2023-07-24T11:21:17;9.30;;;5.63;;
4365;SDS011;2196;47.422;9.656;2023-07-24T11:23:47;6.07;;;5.27;;
4365;SDS011;2196;47.422;9.656;2023-07-24T11:26:14;7.53;;;5.40;;
4365;SDS011;2196;47.422;9.656;2023-07-24T11:28:41;7.63;;;5.77;;
4365;SDS011;2196;47.422;9.656;2023-07-24T11:31:08;5.90;;;5.37;;
4365;SDS011;2196;47.422;9.656;2023-07-24T11:33:36;8.57;;;6.40;;
4365;SDS011;2196;47.422;9.656;2023-07-24T11:36:04;6.27;;;5.63;;
4365;SDS011;2196;47.422;9.656;2023-07-24T11:38:31;6.13;;;5.63;;
4365;SDS011;2196;47.422;9.656;2023-07-24T11:41:00;7.67;;;6.60;;
4365;SDS011;2196;47.422;9.656;2023-07-24T11:43:27;7.40;;;6.80;;
4365;SDS011;2196;47.422;9.656;2023-07-24T11:45:54;6.83;;;6.13;;
4365;SDS011;2196;47.422;9.656;2023-07-24T11:48:22;7.23;;;6.53;;
4365;SDS011;2196;47.422;9.656;2023-07-24T11:50:50;7.97;;;6.10;;
4365;SDS011;2196;47.422;9.656;2023-07-24T11:53:20;6.77;;;6.07;;
4365;SDS011;2196;47.422;9.656;2023-07-24T11:55:48;7.43;;;6.70;;
4365;SDS011;2196;47.422;9.656;2023-07-24T11:58:17;6.87;;;6.13;;
4365;SDS011;2196;47.422;9.656;2023-07-24T12:00:45;7.93;;;7.13;;
4365;SDS011;2196;47.422;9.656;2023-07-24T12:03:12;7.00;;;6.40;;
4365;SDS011;2196;47.422;9.656;2023-07-24T12:05:39;9.90;;;7.23;;
4365;SDS011;2196;47.422;9.656;2023-07-24T12:08:07;6.77;;;6.17;;
4365;SDS011;2196;47.422;9.656;2023-07-24T12:10:35;6.87;;;6.17;;
4365;SDS011;2196;47.422;9.656;2023-07-24T12:13:03;7.30;;;6.60;;
4365;SDS011;2196;47.422;9.656;2023-07-24T12:15:32;7.83;;;7.20;;
4365;SDS011;2196;47.422;9.656;2023-07-24T12:18:00;8.17;;;7.00;;
4365;SDS011;2196;47.422;9.656;2023-07-24T12:20:27;6.93;;;6.33;;
4365;SDS011;2196;47.422;9.656;2023-07-24T12:22:54;7.37;;;6.77;;
4365;SDS011;2196;47.422;9.656;2023-07-24T12:25:22;6.93;;;6.23;;
4365;SDS011;2196;47.422;9.656;2023-07-24T12:27:49;4.63;;;4.30;;
4365;SDS011;2196;47.422;9.656;2023-07-24T12:30:16;5.67;;;3.83;;
4365;SDS011;2196;47.422;9.656;2023-07-24T12:32:44;5.87;;;3.70;;
4365;SDS011;2196;47.422;9.656;2023-07-24T12:35:15;2.03;;;1.93;;
4365;SDS011;2196;47.422;9.656;2023-07-24T12:37:42;2.20;;;2.00;;
4365;SDS011;2196;47.422;9.656;2023-07-24T12:40:12;2.63;;;2.43;;
4365;SDS011;2196;47.422;9.656;2023-07-24T12:42:39;2.70;;;2.50;;
4365;SDS011;2196;47.422;9.656;2023-07-24T12:45:06;3.43;;;3.13;;
4365;SDS011;2196;47.422;9.656;2023-07-24T12:47:34;2.50;;;2.30;;
4365;SDS011;2196;47.422;9.656;2023-07-24T12:50:02;3.20;;;2.80;;
4365;SDS011;2196;47.422;9.656;2023-07-24T12:52:29;2.77;;;2.57;;
4365;SDS011;2196;47.422;9.656;2023-07-24T12:54:56;3.20;;;3.00;;
4365;SDS011;2196;47.422;9.656;2023-07-24T12:57:23;6.00;;;4.37;;
4365;SDS011;2196;47.422;9.656;2023-07-24T12:59:51;2.47;;;2.37;;
4365;SDS011;2196;47.422;9.656;2023-07-24T13:02:18;4.27;;;2.57;;
4365;SDS011;2196;47.422;9.656;2023-07-24T13:04:45;3.87;;;2.90;;
4365;SDS011;2196;47.422;9.656;2023-07-24T13:07:13;3.23;;;2.20;;
4365;SDS011;2196;47.422;9.656;2023-07-24T13:09:40;3.33;;;2.87;;
4365;SDS011;2196;47.422;9.656;2023-07-24T13:12:08;3.57;;;3.27;;
4365;SDS011;2196;47.422;9.656;2023-07-24T13:14:35;3.33;;;3.03;;
4365;SDS011;2196;47.422;9.656;2023-07-24T13:17:02;3.63;;;2.53;;
4365;SDS011;2196;47.422;9.656;2023-07-24T13:19:29;3.30;;;3.00;;
4365;SDS011;2196;47.422;9.656;2023-07-24T13:21:56;3.00;;;2.90;;
4365;SDS011;2196;47.422;9.656;2023-07-24T13:24:25;3.40;;;3.10;;
4365;SDS011;2196;47.422;9.656;2023-07-24T13:26:52;3.03;;;2.63;;
4365;SDS011;2196;47.422;9.656;2023-07-24T13:29:19;2.97;;;2.53;;
4365;SDS011;2196;47.422;9.656;2023-07-24T13:31:45;3.87;;;3.47;;
4365;SDS011;2196;47.422;9.656;2023-07-24T13:34:12;3.00;;;2.77;;
4365;SDS011;2196;47.422;9.656;2023-07-24T13:36:39;3.07;;;2.50;;
4365;SDS011;2196;47.422;9.656;2023-07-24T13:39:06;2.20;;;2.10;;
4365;SDS011;2196;47.422;9.656;2023-07-24T13:41:34;4.17;;;3.20;;
4365;SDS011;2196;47.422;9.656;2023-07-24T13:44:03;3.53;;;3.03;;
4365;SDS011;2196;47.422;9.656;2023-07-24T13:46:30;3.43;;;3.07;;
4365;SDS011;2196;47.422;9.656;2023-07-24T13:48:57;3.10;;;2.90;;
4365;SDS011;2196;47.422;9.656;2023-07-24T13:51:24;2.23;;;2.13;;
4365;SDS011;2196;47.422;9.656;2023-07-24T13:53:51;2.90;;;2.80;;
4365;SDS011;2196;47.422;9.656;2023-07-24T13:56:19;2.67;;;2.50;;
4365;SDS011;2196;47.422;9.656;2023-07-24T13:58:49;2.50;;;2.40;;
4365;SDS011;2196;47.422;9.656;2023-07-24T14:01:16;2.13;;;1.83;;
4365;SDS011;2196;47.422;9.656;2023-07-24T14:03:43;2.20;;;2.10;;
4365;SDS011;2196;47.422;9.656;2023-07-24T14:06:10;2.63;;;2.23;;
4365;SDS011;2196;47.422;9.656;2023-07-24T14:08:37;2.30;;;2.20;;
4365;SDS011;2196;47.422;9.656;2023-07-24T14:11:03;1.80;;;1.70;;
4365;SDS011;2196;47.422;9.656;2023-07-24T14:13:30;2.10;;;2.00;;
4365;SDS011;2196;47.422;9.656;2023-07-24T14:15:59;5.70;;;2.00;;
4365;SDS011;2196;47.422;9.656;2023-07-24T14:18:26;2.30;;;2.10;;
4365;SDS011;2196;47.422;9.656;2023-07-24T14:20:52;2.60;;;2.40;;
4365;SDS011;2196;47.422;9.656;2023-07-24T14:23:21;2.27;;;2.03;;
4365;SDS011;2196;47.422;9.656;2023-07-24T14:25:48;4.63;;;2.93;;
4365;SDS011;2196;47.422;9.656;2023-07-24T14:28:15;2.60;;;2.40;;
4365;SDS011;2196;47.422;9.656;2023-07-24T14:30:42;2.50;;;2.40;;
4365;SDS011;2196;47.422;9.656;2023-07-24T14:33:10;2.37;;;2.17;;
4365;SDS011;2196;47.422;9.656;2023-07-24T14:35:37;3.00;;;2.80;;
4365;SDS011;2196;47.422;9.656;2023-07-24T14:38:04;3.33;;;2.50;;
4365;SDS011;2196;47.422;9.656;2023-07-24T14:40:31;2.23;;;2.13;;
4365;SDS011;2196;47.422;9.656;2023-07-24T14:42:58;2.20;;;2.10;;
4365;SDS011;2196;47.422;9.656;2023-07-24T14:45:25;2.50;;;2.30;;
4365;SDS011;2196;47.422;9.656;2023-07-24T14:47:52;2.10;;;2.00;;
4365;SDS011;2196;47.422;9.656;2023-07-24T14:50:20;2.83;;;2.40;;
4365;SDS011;2196;47.422;9.656;2023-07-24T14:52:48;2.10;;;2.00;;
4365;SDS011;2196;47.422;9.656;2023-07-24T14:55:15;2.60;;;2.40;;
4365;SDS011;2196;47.422;9.656;2023-07-24T14:57:42;2.77;;;2.50;;
4365;SDS011;2196;47.422;9.656;2023-07-24T15:00:09;3.00;;;2.50;;
4365;SDS011;2196;47.422;9.656;2023-07-24T15:02:37;1.77;;;1.70;;
4365;SDS011;2196;47.422;9.656;2023-07-24T15:05:04;2.77;;;2.57;;
4365;SDS011;2196;47.422;9.656;2023-07-24T15:07:32;2.33;;;2.10;;